sensor_id;sensor_type;location;lat;lon;timestamp;temperature;humidity
21906;DHT22;11117;48.644;9.006;2024-02-23T00:01:51;4.50;99.90
21906;DHT22;11117;48.644;9.006;2024-02-23T00:04:16;4.50;99.90
21906;DHT22;11117;48.644;9.006;2024-02-23T00:06:42;4.50;99.90
21906;DHT22;11117;48.644;9.006;2024-02-23T00:09:07;4.50;99.90
21906;DHT22;11117;48.644;9.006;2024-02-23T00:11:33;4.50;99.90
21906;DHT22;11117;48.644;9.006;2024-02-23T00:13:59;4.50;99.90
21906;DHT22;11117;48.644;9.006;2024-02-23T00:16:25;4.60;99.90
21906;DHT22;11117;48.644;9.006;2024-02-23T00:18:51;4.60;99.90
21906;DHT22;11117;48.644;9.006;2024-02-23T00:21:16;4.60;99.90
21906;DHT22;11117;48.644;9.006;2024-02-23T00:23:42;4.60;99.90
21906;DHT22;11117;48.644;9.006;2024-02-23T00:26:07;4.60;99.90
21906;DHT22;11117;48.644;9.006;2024-02-23T00:28:33;4.70;99.90
21906;DHT22;11117;48.644;9.006;2024-02-23T00:30:58;4.60;99.90
21906;DHT22;11117;48.644;9.006;2024-02-23T00:33:24;4.70;99.90
21906;DHT22;11117;48.644;9.006;2024-02-23T00:35:49;4.70;99.90
21906;DHT22;11117;48.644;9.006;2024-02-23T00:38:15;4.70;99.90
21906;DHT22;11117;48.644;9.006;2024-02-23T00:40:40;4.70;99.90
21906;DHT22;11117;48.644;9.006;2024-02-23T00:43:06;4.70;99.90
21906;DHT22;11117;48.644;9.006;2024-02-23T00:45:31;4.70;99.90
21906;DHT22;11117;48.644;9.006;2024-02-23T00:47:57;4.70;99.90
21906;DHT22;11117;48.644;9.006;2024-02-23T00:50:23;4.80;99.90
21906;DHT22;11117;48.644;9.006;2024-02-23T00:52:53;4.80;99.90
21906;DHT22;11117;48.644;9.006;2024-02-23T00:55:19;4.80;99.90
21906;DHT22;11117;48.644;9.006;2024-02-23T00:57:45;4.80;99.90
21906;DHT22;11117;48.644;9.006;2024-02-23T01:00:11;4.80;99.90
21906;DHT22;11117;48.644;9.006;2024-02-23T01:02:40;4.80;99.90
21906;DHT22;11117;48.644;9.006;2024-02-23T01:05:06;4.80;99.90
21906;DHT22;11117;48.644;9.006;2024-02-23T01:07:31;4.80;99.90
21906;DHT22;11117;48.644;9.006;2024-02-23T01:09:57;4.90;99.90
21906;DHT22;11117;48.644;9.006;2024-02-23T01:12:22;4.80;99.90
21906;DHT22;11117;48.644;9.006;2024-02-23T01:14:48;4.90;99.90
21906;DHT22;11117;48.644;9.006;2024-02-23T01:17:14;4.80;99.90
21906;DHT22;11117;48.644;9.006;2024-02-23T01:19:41;4.80;99.90
21906;DHT22;11117;48.644;9.006;2024-02-23T01:22:06;4.80;99.90
21906;DHT22;11117;48.644;9.006;2024-02-23T01:24:32;4.80;99.90
21906;DHT22;11117;48.644;9.006;2024-02-23T01:26:57;4.80;99.90
21906;DHT22;11117;48.644;9.006;2024-02-23T01:29:25;4.90;99.90
21906;DHT22;11117;48.644;9.006;2024-02-23T01:31:50;4.90;99.90
21906;DHT22;11117;48.644;9.006;2024-02-23T01:34:16;4.80;99.90
21906;DHT22;11117;48.644;9.006;2024-02-23T01:36:41;5.00;99.90
21906;DHT22;11117;48.644;9.006;2024-02-23T01:39:07;5.00;99.90
21906;DHT22;11117;48.644;9.006;2024-02-23T01:41:32;5.00;99.90
21906;DHT22;11117;48.644;9.006;2024-02-23T01:43:58;4.90;99.90
21906;DHT22;11117;48.644;9.006;2024-02-23T01:46:24;4.90;99.90
21906;DHT22;11117;48.644;9.006;2024-02-23T01:48:49;4.90;99.90
21906;DHT22;11117;48.644;9.006;2024-02-23T01:51:16;4.90;99.90
21906;DHT22;11117;48.644;9.006;2024-02-23T01:53:41;4.80;99.90
21906;DHT22;11117;48.644;9.006;2024-02-23T01:56:08;4.80;99.90
21906;DHT22;11117;48.644;9.006;2024-02-23T01:58:35;4.90;99.90
21906;DHT22;11117;48.644;9.006;2024-02-23T02:01:02;4.90;99.90
21906;DHT22;11117;48.644;9.006;2024-02-23T02:03:27;5.10;99.90
21906;DHT22;11117;48.644;9.006;2024-02-23T02:05:53;5.20;99.90
21906;DHT22;11117;48.644;9.006;2024-02-23T02:08:20;5.40;99.90
21906;DHT22;11117;48.644;9.006;2024-02-23T02:10:46;5.40;99.90
21906;DHT22;11117;48.644;9.006;2024-02-23T02:13:11;5.20;99.90
21906;DHT22;11117;48.644;9.006;2024-02-23T02:15:37;5.10;99.90
21906;DHT22;11117;48.644;9.006;2024-02-23T02:18:02;5.00;99.90
21906;DHT22;11117;48.644;9.006;2024-02-23T02:20:32;5.00;99.90
21906;DHT22;11117;48.644;9.006;2024-02-23T02:22:58;4.80;99.90
21906;DHT22;11117;48.644;9.006;2024-02-23T02:25:23;4.90;99.90
21906;DHT22;11117;48.644;9.006;2024-02-23T02:27:52;4.80;99.90
21906;DHT22;11117;48.644;9.006;2024-02-23T02:30:18;4.70;99.90
21906;DHT22;11117;48.644;9.006;2024-02-23T02:32:43;4.60;99.90
21906;DHT22;11117;48.644;9.006;2024-02-23T02:35:11;4.50;99.90
21906;DHT22;11117;48.644;9.006;2024-02-23T02:37:36;4.40;99.90
21906;DHT22;11117;48.644;9.006;2024-02-23T02:40:02;4.40;99.90
21906;DHT22;11117;48.644;9.006;2024-02-23T02:42:28;4.40;99.90
21906;DHT22;11117;48.644;9.006;2024-02-23T02:44:53;4.40;99.90
21906;DHT22;11117;48.644;9.006;2024-02-23T02:47:19;4.30;99.90
21906;DHT22;11117;48.644;9.006;2024-02-23T02:49:44;4.30;99.90
21906;DHT22;11117;48.644;9.006;2024-02-23T02:52:10;4.30;99.90
21906;DHT22;11117;48.644;9.006;2024-02-23T02:54:36;4.30;99.90
21906;DHT22;11117;48.644;9.006;2024-02-23T02:57:01;4.30;99.90
21906;DHT22;11117;48.644;9.006;2024-02-23T02:59:27;4.30;99.90
21906;DHT22;11117;48.644;9.006;2024-02-23T03:01:52;4.30;99.90
21906;DHT22;11117;48.644;9.006;2024-02-23T03:04:18;4.20;99.90
21906;DHT22;11117;48.644;9.006;2024-02-23T03:06:43;4.20;99.90
21906;DHT22;11117;48.644;9.006;2024-02-23T03:09:09;4.30;99.90
21906;DHT22;11117;48.644;9.006;2024-02-23T03:11:36;4.20;99.90
21906;DHT22;11117;48.644;9.006;2024-02-23T03:14:01;4.20;99.90
21906;DHT22;11117;48.644;9.006;2024-02-23T03:16:27;4.20;99.90
21906;DHT22;11117;48.644;9.006;2024-02-23T03:18:52;4.10;99.90
21906;DHT22;11117;48.644;9.006;2024-02-23T03:21:18;4.10;99.90
21906;DHT22;11117;48.644;9.006;2024-02-23T03:23:44;4.20;99.90
21906;DHT22;11117;48.644;9.006;2024-02-23T03:26:09;4.10;99.90
21906;DHT22;11117;48.644;9.006;2024-02-23T03:28:35;4.20;99.90
21906;DHT22;11117;48.644;9.006;2024-02-23T03:31:00;4.10;99.90
21906;DHT22;11117;48.644;9.006;2024-02-23T03:33:26;4.10;99.90
21906;DHT22;11117;48.644;9.006;2024-02-23T03:35:51;4.10;99.90
21906;DHT22;11117;48.644;9.006;2024-02-23T03:38:17;4.10;99.90
21906;DHT22;11117;48.644;9.006;2024-02-23T03:40:42;4.10;99.90
21906;DHT22;11117;48.644;9.006;2024-02-23T03:43:08;4.10;99.90
21906;DHT22;11117;48.644;9.006;2024-02-23T03:45:34;4.00;99.90
21906;DHT22;11117;48.644;9.006;2024-02-23T03:47:59;4.10;99.90
21906;DHT22;11117;48.644;9.006;2024-02-23T03:50:25;4.00;99.90
21906;DHT22;11117;48.644;9.006;2024-02-23T03:52:52;4.00;99.90
21906;DHT22;11117;48.644;9.006;2024-02-23T03:55:18;4.00;99.90
21906;DHT22;11117;48.644;9.006;2024-02-23T03:57:43;3.90;99.90
21906;DHT22;11117;48.644;9.006;2024-02-23T04:00:09;3.90;99.90
21906;DHT22;11117;48.644;9.006;2024-02-23T04:02:35;4.00;99.90
21906;DHT22;11117;48.644;9.006;2024-02-23T04:05:01;4.00;99.90
21906;DHT22;11117;48.644;9.006;2024-02-23T04:07:26;3.90;99.90
21906;DHT22;11117;48.644;9.006;2024-02-23T04:09:52;3.90;99.90
21906;DHT22;11117;48.644;9.006;2024-02-23T04:12:21;3.90;99.90
21906;DHT22;11117;48.644;9.006;2024-02-23T04:14:47;3.90;99.90
21906;DHT22;11117;48.644;9.006;2024-02-23T04:17:13;3.80;99.90
21906;DHT22;11117;48.644;9.006;2024-02-23T04:19:39;3.80;99.90
21906;DHT22;11117;48.644;9.006;2024-02-23T04:22:06;3.80;99.90
21906;DHT22;11117;48.644;9.006;2024-02-23T04:24:31;3.80;99.90
21906;DHT22;11117;48.644;9.006;2024-02-23T04:26:57;3.80;99.90
21906;DHT22;11117;48.644;9.006;2024-02-23T04:29:23;3.80;99.90
21906;DHT22;11117;48.644;9.006;2024-02-23T04:31:48;3.80;99.90
21906;DHT22;11117;48.644;9.006;2024-02-23T04:34:15;3.80;99.90
21906;DHT22;11117;48.644;9.006;2024-02-23T04:36:40;3.80;99.90
21906;DHT22;11117;48.644;9.006;2024-02-23T04:39:06;3.90;99.90
21906;DHT22;11117;48.644;9.006;2024-02-23T04:41:31;3.90;99.90
21906;DHT22;11117;48.644;9.006;2024-02-23T04:43:57;3.90;99.90
21906;DHT22;11117;48.644;9.006;2024-02-23T04:46:22;3.90;99.90
21906;DHT22;11117;48.644;9.006;2024-02-23T04:48:48;3.90;99.90
21906;DHT22;11117;48.644;9.006;2024-02-23T04:51:14;4.00;99.90
21906;DHT22;11117;48.644;9.006;2024-02-23T04:53:39;4.00;99.90
21906;DHT22;11117;48.644;9.006;2024-02-23T04:56:05;4.00;99.90
21906;DHT22;11117;48.644;9.006;2024-02-23T04:58:32;4.00;99.90
21906;DHT22;11117;48.644;9.006;2024-02-23T05:00:58;4.00;99.90
21906;DHT22;11117;48.644;9.006;2024-02-23T05:03:23;4.10;99.90
21906;DHT22;11117;48.644;9.006;2024-02-23T05:05:49;4.00;99.90
21906;DHT22;11117;48.644;9.006;2024-02-23T05:08:14;4.00;99.90
21906;DHT22;11117;48.644;9.006;2024-02-23T05:10:40;4.10;99.90
21906;DHT22;11117;48.644;9.006;2024-02-23T05:13:05;4.20;99.90
21906;DHT22;11117;48.644;9.006;2024-02-23T05:15:31;4.30;99.90
21906;DHT22;11117;48.644;9.006;2024-02-23T05:17:56;4.40;99.90
21906;DHT22;11117;48.644;9.006;2024-02-23T05:20:22;4.50;99.90
21906;DHT22;11117;48.644;9.006;2024-02-23T05:22:52;4.60;99.90
21906;DHT22;11117;48.644;9.006;2024-02-23T05:25:17;4.60;99.90
21906;DHT22;11117;48.644;9.006;2024-02-23T05:27:43;4.70;99.90
21906;DHT22;11117;48.644;9.006;2024-02-23T05:30:09;4.70;99.90
21906;DHT22;11117;48.644;9.006;2024-02-23T05:32:34;4.60;99.90
21906;DHT22;11117;48.644;9.006;2024-02-23T05:35:00;4.60;99.90
21906;DHT22;11117;48.644;9.006;2024-02-23T05:37:25;4.50;99.90
21906;DHT22;11117;48.644;9.006;2024-02-23T05:39:51;4.50;99.90
21906;DHT22;11117;48.644;9.006;2024-02-23T05:42:17;4.50;99.90
21906;DHT22;11117;48.644;9.006;2024-02-23T05:44:46;4.50;99.90
21906;DHT22;11117;48.644;9.006;2024-02-23T05:47:11;4.40;99.90
21906;DHT22;11117;48.644;9.006;2024-02-23T05:49:37;4.50;99.90
21906;DHT22;11117;48.644;9.006;2024-02-23T05:52:03;4.30;99.90
21906;DHT22;11117;48.644;9.006;2024-02-23T05:54:28;4.40;99.90
21906;DHT22;11117;48.644;9.006;2024-02-23T05:56:54;4.50;99.90
21906;DHT22;11117;48.644;9.006;2024-02-23T05:59:19;4.50;99.90
21906;DHT22;11117;48.644;9.006;2024-02-23T06:01:45;4.40;99.90
21906;DHT22;11117;48.644;9.006;2024-02-23T06:04:11;4.40;99.90
21906;DHT22;11117;48.644;9.006;2024-02-23T06:06:36;4.30;99.90
21906;DHT22;11117;48.644;9.006;2024-02-23T06:09:02;4.40;99.90
21906;DHT22;11117;48.644;9.006;2024-02-23T06:11:27;4.50;99.90
21906;DHT22;11117;48.644;9.006;2024-02-23T06:13:53;4.50;99.90
21906;DHT22;11117;48.644;9.006;2024-02-23T06:16:18;4.40;99.90
21906;DHT22;11117;48.644;9.006;2024-02-23T06:18:44;4.50;99.90
21906;DHT22;11117;48.644;9.006;2024-02-23T06:21:16;4.50;99.90
21906;DHT22;11117;48.644;9.006;2024-02-23T06:23:42;4.50;99.90
21906;DHT22;11117;48.644;9.006;2024-02-23T06:26:08;4.50;99.90
21906;DHT22;11117;48.644;9.006;2024-02-23T06:28:33;4.30;99.90
21906;DHT22;11117;48.644;9.006;2024-02-23T06:30:59;4.30;99.90
21906;DHT22;11117;48.644;9.006;2024-02-23T06:33:25;4.20;99.90
21906;DHT22;11117;48.644;9.006;2024-02-23T06:35:50;4.30;99.90
21906;DHT22;11117;48.644;9.006;2024-02-23T06:38:16;4.50;99.90
21906;DHT22;11117;48.644;9.006;2024-02-23T06:40:42;4.60;99.90
21906;DHT22;11117;48.644;9.006;2024-02-23T06:43:07;4.60;99.90
21906;DHT22;11117;48.644;9.006;2024-02-23T06:45:33;4.50;99.90
21906;DHT22;11117;48.644;9.006;2024-02-23T06:47:58;4.60;99.90
21906;DHT22;11117;48.644;9.006;2024-02-23T06:50:24;4.80;99.90
21906;DHT22;11117;48.644;9.006;2024-02-23T06:52:53;4.80;99.90
21906;DHT22;11117;48.644;9.006;2024-02-23T06:55:19;4.80;99.90
21906;DHT22;11117;48.644;9.006;2024-02-23T06:57:44;4.90;99.90
21906;DHT22;11117;48.644;9.006;2024-02-23T07:00:10;5.00;99.90
21906;DHT22;11117;48.644;9.006;2024-02-23T07:02:36;5.10;99.90
21906;DHT22;11117;48.644;9.006;2024-02-23T07:05:02;5.20;99.90
21906;DHT22;11117;48.644;9.006;2024-02-23T07:07:27;5.30;99.90
21906;DHT22;11117;48.644;9.006;2024-02-23T07:09:53;5.30;99.90
21906;DHT22;11117;48.644;9.006;2024-02-23T07:12:19;5.30;99.90
21906;DHT22;11117;48.644;9.006;2024-02-23T07:14:44;5.40;99.90
21906;DHT22;11117;48.644;9.006;2024-02-23T07:17:10;5.40;99.90
21906;DHT22;11117;48.644;9.006;2024-02-23T07:19:35;5.50;99.90
21906;DHT22;11117;48.644;9.006;2024-02-23T07:22:01;5.50;99.90
21906;DHT22;11117;48.644;9.006;2024-02-23T07:24:26;5.30;99.90
21906;DHT22;11117;48.644;9.006;2024-02-23T07:26:52;5.40;99.90
21906;DHT22;11117;48.644;9.006;2024-02-23T07:29:17;5.40;99.90
21906;DHT22;11117;48.644;9.006;2024-02-23T07:31:43;5.50;99.90
21906;DHT22;11117;48.644;9.006;2024-02-23T07:34:08;5.60;99.90
21906;DHT22;11117;48.644;9.006;2024-02-23T07:36:34;5.60;99.90
21906;DHT22;11117;48.644;9.006;2024-02-23T07:38:59;5.50;99.90
21906;DHT22;11117;48.644;9.006;2024-02-23T07:41:25;5.30;99.90
21906;DHT22;11117;48.644;9.006;2024-02-23T07:43:50;5.40;99.90
21906;DHT22;11117;48.644;9.006;2024-02-23T07:46:16;5.50;99.90
21906;DHT22;11117;48.644;9.006;2024-02-23T07:48:42;5.30;99.90
21906;DHT22;11117;48.644;9.006;2024-02-23T07:51:07;5.40;99.90
21906;DHT22;11117;48.644;9.006;2024-02-23T07:53:34;5.50;99.90
21906;DHT22;11117;48.644;9.006;2024-02-23T07:56:00;5.60;99.90
21906;DHT22;11117;48.644;9.006;2024-02-23T07:58:25;5.60;99.90
21906;DHT22;11117;48.644;9.006;2024-02-23T08:00:51;5.70;99.90
21906;DHT22;11117;48.644;9.006;2024-02-23T08:03:17;5.60;99.90
21906;DHT22;11117;48.644;9.006;2024-02-23T08:05:42;5.60;99.90
21906;DHT22;11117;48.644;9.006;2024-02-23T08:08:08;5.60;99.90
21906;DHT22;11117;48.644;9.006;2024-02-23T08:10:33;5.70;99.90
21906;DHT22;11117;48.644;9.006;2024-02-23T08:12:59;5.70;99.90
21906;DHT22;11117;48.644;9.006;2024-02-23T08:15:24;5.70;99.90
21906;DHT22;11117;48.644;9.006;2024-02-23T08:17:52;5.70;99.90
21906;DHT22;11117;48.644;9.006;2024-02-23T08:20:18;5.40;99.90
21906;DHT22;11117;48.644;9.006;2024-02-23T08:22:43;5.40;99.90
21906;DHT22;11117;48.644;9.006;2024-02-23T08:25:09;5.30;99.90
21906;DHT22;11117;48.644;9.006;2024-02-23T08:27:35;5.20;99.90
21906;DHT22;11117;48.644;9.006;2024-02-23T08:30:00;5.10;99.90
21906;DHT22;11117;48.644;9.006;2024-02-23T08:32:26;5.00;99.90
21906;DHT22;11117;48.644;9.006;2024-02-23T08:34:51;4.90;99.90
21906;DHT22;11117;48.644;9.006;2024-02-23T08:37:17;5.00;99.90
21906;DHT22;11117;48.644;9.006;2024-02-23T08:39:42;5.20;99.90
21906;DHT22;11117;48.644;9.006;2024-02-23T08:42:08;5.40;99.90
21906;DHT22;11117;48.644;9.006;2024-02-23T08:44:34;5.50;99.90
21906;DHT22;11117;48.644;9.006;2024-02-23T08:46:59;5.40;99.90
21906;DHT22;11117;48.644;9.006;2024-02-23T08:49:25;5.40;99.90
21906;DHT22;11117;48.644;9.006;2024-02-23T08:51:50;5.20;99.90
21906;DHT22;11117;48.644;9.006;2024-02-23T08:54:16;5.30;99.90
21906;DHT22;11117;48.644;9.006;2024-02-23T08:56:41;5.30;99.90
21906;DHT22;11117;48.644;9.006;2024-02-23T08:59:07;5.40;99.90
21906;DHT22;11117;48.644;9.006;2024-02-23T09:01:32;5.30;99.90
21906;DHT22;11117;48.644;9.006;2024-02-23T09:03:58;5.50;99.90
21906;DHT22;11117;48.644;9.006;2024-02-23T09:06:23;5.60;99.90
21906;DHT22;11117;48.644;9.006;2024-02-23T09:08:49;5.20;99.90
21906;DHT22;11117;48.644;9.006;2024-02-23T09:11:14;5.20;99.90
21906;DHT22;11117;48.644;9.006;2024-02-23T09:13:40;5.10;99.90
21906;DHT22;11117;48.644;9.006;2024-02-23T09:16:06;5.00;99.90
21906;DHT22;11117;48.644;9.006;2024-02-23T09:18:32;4.90;99.90
21906;DHT22;11117;48.644;9.006;2024-02-23T09:20:57;4.90;99.90
21906;DHT22;11117;48.644;9.006;2024-02-23T09:23:24;4.80;99.90
21906;DHT22;11117;48.644;9.006;2024-02-23T09:25:50;5.00;99.90
21906;DHT22;11117;48.644;9.006;2024-02-23T09:28:15;5.10;99.90
21906;DHT22;11117;48.644;9.006;2024-02-23T09:30:41;5.20;99.90
21906;DHT22;11117;48.644;9.006;2024-02-23T09:33:06;5.00;99.90
21906;DHT22;11117;48.644;9.006;2024-02-23T09:35:32;5.00;99.90
21906;DHT22;11117;48.644;9.006;2024-02-23T09:37:57;4.90;99.90
21906;DHT22;11117;48.644;9.006;2024-02-23T09:40:23;4.80;99.90
21906;DHT22;11117;48.644;9.006;2024-02-23T09:42:56;5.00;99.90
21906;DHT22;11117;48.644;9.006;2024-02-23T09:45:24;5.20;99.90
21906;DHT22;11117;48.644;9.006;2024-02-23T09:47:53;5.30;99.90
21906;DHT22;11117;48.644;9.006;2024-02-23T09:50:20;5.70;99.90
21906;DHT22;11117;48.644;9.006;2024-02-23T09:52:53;6.00;99.90
21906;DHT22;11117;48.644;9.006;2024-02-23T09:55:21;6.10;99.90
21906;DHT22;11117;48.644;9.006;2024-02-23T09:57:48;6.40;99.90
21906;DHT22;11117;48.644;9.006;2024-02-23T10:00:16;6.80;99.90
21906;DHT22;11117;48.644;9.006;2024-02-23T10:02:43;7.20;99.90
21906;DHT22;11117;48.644;9.006;2024-02-23T10:05:10;7.10;99.90
21906;DHT22;11117;48.644;9.006;2024-02-23T10:07:36;7.10;99.90
21906;DHT22;11117;48.644;9.006;2024-02-23T10:10:01;7.50;99.90
21906;DHT22;11117;48.644;9.006;2024-02-23T10:12:27;7.50;99.90
21906;DHT22;11117;48.644;9.006;2024-02-23T10:14:52;7.40;99.90
21906;DHT22;11117;48.644;9.006;2024-02-23T10:17:19;7.50;99.90
21906;DHT22;11117;48.644;9.006;2024-02-23T10:19:45;7.60;99.90
21906;DHT22;11117;48.644;9.006;2024-02-23T10:22:11;7.80;99.90
21906;DHT22;11117;48.644;9.006;2024-02-23T10:24:36;8.10;99.90
21906;DHT22;11117;48.644;9.006;2024-02-23T10:27:02;8.20;99.90
21906;DHT22;11117;48.644;9.006;2024-02-23T10:29:28;7.80;99.90
21906;DHT22;11117;48.644;9.006;2024-02-23T10:31:57;7.60;99.90
21906;DHT22;11117;48.644;9.006;2024-02-23T10:34:23;7.40;99.90
21906;DHT22;11117;48.644;9.006;2024-02-23T10:36:49;7.60;99.90
21906;DHT22;11117;48.644;9.006;2024-02-23T10:39:16;7.60;99.90
21906;DHT22;11117;48.644;9.006;2024-02-23T10:41:47;7.90;99.90
21906;DHT22;11117;48.644;9.006;2024-02-23T10:44:14;7.80;99.90
21906;DHT22;11117;48.644;9.006;2024-02-23T10:46:41;7.70;99.90
21906;DHT22;11117;48.644;9.006;2024-02-23T10:49:07;7.70;99.90
21906;DHT22;11117;48.644;9.006;2024-02-23T10:51:33;8.00;99.90
21906;DHT22;11117;48.644;9.006;2024-02-23T10:53:59;8.30;99.90
21906;DHT22;11117;48.644;9.006;2024-02-23T10:56:25;8.70;99.90
21906;DHT22;11117;48.644;9.006;2024-02-23T10:58:51;8.90;99.90
21906;DHT22;11117;48.644;9.006;2024-02-23T11:01:16;9.10;99.90
21906;DHT22;11117;48.644;9.006;2024-02-23T11:03:44;8.70;99.90
21906;DHT22;11117;48.644;9.006;2024-02-23T11:06:11;8.80;99.90
21906;DHT22;11117;48.644;9.006;2024-02-23T11:08:37;9.10;99.90
21906;DHT22;11117;48.644;9.006;2024-02-23T11:11:09;9.40;99.90
21906;DHT22;11117;48.644;9.006;2024-02-23T11:13:38;9.60;99.90
21906;DHT22;11117;48.644;9.006;2024-02-23T11:16:05;9.70;99.90
21906;DHT22;11117;48.644;9.006;2024-02-23T11:18:31;9.70;99.90
21906;DHT22;11117;48.644;9.006;2024-02-23T11:21:00;9.90;99.90
21906;DHT22;11117;48.644;9.006;2024-02-23T11:23:26;10.10;99.90
21906;DHT22;11117;48.644;9.006;2024-02-23T11:28:29;9.30;99.90
21906;DHT22;11117;48.644;9.006;2024-02-23T11:30:54;9.60;99.90
21906;DHT22;11117;48.644;9.006;2024-02-23T11:33:27;9.50;99.90
21906;DHT22;11117;48.644;9.006;2024-02-23T11:35:52;9.60;99.90
21906;DHT22;11117;48.644;9.006;2024-02-23T11:38:19;9.80;99.90
21906;DHT22;11117;48.644;9.006;2024-02-23T11:40:48;9.90;99.90
21906;DHT22;11117;48.644;9.006;2024-02-23T11:43:14;9.90;99.90
21906;DHT22;11117;48.644;9.006;2024-02-23T11:45:40;9.90;99.90
21906;DHT22;11117;48.644;9.006;2024-02-23T11:48:07;10.00;99.90
21906;DHT22;11117;48.644;9.006;2024-02-23T11:50:32;10.10;99.90
21906;DHT22;11117;48.644;9.006;2024-02-23T11:52:59;9.80;99.90
21906;DHT22;11117;48.644;9.006;2024-02-23T11:55:26;9.50;99.90
21906;DHT22;11117;48.644;9.006;2024-02-23T11:57:52;9.50;99.90
21906;DHT22;11117;48.644;9.006;2024-02-23T12:00:18;9.60;99.90
21906;DHT22;11117;48.644;9.006;2024-02-23T12:02:44;9.30;99.90
21906;DHT22;11117;48.644;9.006;2024-02-23T12:05:10;9.40;99.90
21906;DHT22;11117;48.644;9.006;2024-02-23T12:07:35;9.10;99.90
21906;DHT22;11117;48.644;9.006;2024-02-23T12:10:01;9.20;99.90
21906;DHT22;11117;48.644;9.006;2024-02-23T12:12:26;9.20;99.90
21906;DHT22;11117;48.644;9.006;2024-02-23T12:14:53;9.30;99.90
21906;DHT22;11117;48.644;9.006;2024-02-23T12:17:18;9.10;99.90
21906;DHT22;11117;48.644;9.006;2024-02-23T12:19:44;9.40;99.90
21906;DHT22;11117;48.644;9.006;2024-02-23T12:22:13;9.40;99.90
21906;DHT22;11117;48.644;9.006;2024-02-23T12:24:40;9.40;99.90
21906;DHT22;11117;48.644;9.006;2024-02-23T12:27:06;9.20;99.90
21906;DHT22;11117;48.644;9.006;2024-02-23T12:29:32;9.00;99.90
21906;DHT22;11117;48.644;9.006;2024-02-23T12:32:05;8.50;99.90
21906;DHT22;11117;48.644;9.006;2024-02-23T12:34:30;8.50;99.90
21906;DHT22;11117;48.644;9.006;2024-02-23T12:36:56;8.50;99.90
21906;DHT22;11117;48.644;9.006;2024-02-23T12:39:21;8.50;99.90
21906;DHT22;11117;48.644;9.006;2024-02-23T12:41:47;8.50;99.90
21906;DHT22;11117;48.644;9.006;2024-02-23T12:44:13;8.50;99.90
21906;DHT22;11117;48.644;9.006;2024-02-23T12:46:39;8.40;99.90
21906;DHT22;11117;48.644;9.006;2024-02-23T12:49:04;8.70;99.90
21906;DHT22;11117;48.644;9.006;2024-02-23T12:51:30;8.50;99.90
21906;DHT22;11117;48.644;9.006;2024-02-23T12:53:55;8.60;99.90
21906;DHT22;11117;48.644;9.006;2024-02-23T12:56:21;8.60;99.90
21906;DHT22;11117;48.644;9.006;2024-02-23T12:58:46;8.80;99.90
21906;DHT22;11117;48.644;9.006;2024-02-23T13:01:12;9.00;99.90
21906;DHT22;11117;48.644;9.006;2024-02-23T13:03:39;9.20;99.90
21906;DHT22;11117;48.644;9.006;2024-02-23T13:06:04;9.40;99.90
21906;DHT22;11117;48.644;9.006;2024-02-23T13:08:30;9.60;99.90
21906;DHT22;11117;48.644;9.006;2024-02-23T13:10:57;9.50;99.90
21906;DHT22;11117;48.644;9.006;2024-02-23T13:13:23;9.40;99.90
21906;DHT22;11117;48.644;9.006;2024-02-23T13:15:50;9.30;99.90
21906;DHT22;11117;48.644;9.006;2024-02-23T13:18:16;9.20;99.90
21906;DHT22;11117;48.644;9.006;2024-02-23T13:20:42;8.90;99.90
21906;DHT22;11117;48.644;9.006;2024-02-23T13:23:08;8.80;99.90
21906;DHT22;11117;48.644;9.006;2024-02-23T13:25:35;9.00;99.90
21906;DHT22;11117;48.644;9.006;2024-02-23T13:28:01;9.10;99.90
21906;DHT22;11117;48.644;9.006;2024-02-23T13:30:27;9.20;99.90
21906;DHT22;11117;48.644;9.006;2024-02-23T13:32:54;9.00;99.90
21906;DHT22;11117;48.644;9.006;2024-02-23T13:35:20;9.10;99.90
21906;DHT22;11117;48.644;9.006;2024-02-23T13:37:46;9.50;99.90
21906;DHT22;11117;48.644;9.006;2024-02-23T13:40:11;9.60;99.90
21906;DHT22;11117;48.644;9.006;2024-02-23T13:42:40;9.80;99.90
21906;DHT22;11117;48.644;9.006;2024-02-23T13:45:07;9.90;99.90
21906;DHT22;11117;48.644;9.006;2024-02-23T13:47:33;10.10;99.90
21906;DHT22;11117;48.644;9.006;2024-02-23T13:49:59;10.20;99.90
21906;DHT22;11117;48.644;9.006;2024-02-23T13:52:25;10.40;99.90
21906;DHT22;11117;48.644;9.006;2024-02-23T13:54:50;10.50;99.90
21906;DHT22;11117;48.644;9.006;2024-02-23T13:57:16;10.50;99.90
21906;DHT22;11117;48.644;9.006;2024-02-23T13:59:41;10.70;99.90
21906;DHT22;11117;48.644;9.006;2024-02-23T14:02:07;10.90;99.90
21906;DHT22;11117;48.644;9.006;2024-02-23T14:04:33;11.20;99.90
21906;DHT22;11117;48.644;9.006;2024-02-23T14:06:58;11.30;99.90
21906;DHT22;11117;48.644;9.006;2024-02-23T14:09:24;11.40;99.90
21906;DHT22;11117;48.644;9.006;2024-02-23T14:11:50;11.40;99.90
21906;DHT22;11117;48.644;9.006;2024-02-23T14:14:15;11.50;99.90
21906;DHT22;11117;48.644;9.006;2024-02-23T14:16:41;11.00;99.90
21906;DHT22;11117;48.644;9.006;2024-02-23T14:19:06;11.10;99.90
21906;DHT22;11117;48.644;9.006;2024-02-23T14:21:32;11.20;99.90
21906;DHT22;11117;48.644;9.006;2024-02-23T14:23:58;11.30;99.90
21906;DHT22;11117;48.644;9.006;2024-02-23T14:26:23;10.90;99.90
21906;DHT22;11117;48.644;9.006;2024-02-23T14:28:49;11.10;99.90
21906;DHT22;11117;48.644;9.006;2024-02-23T14:31:15;10.80;99.90
21906;DHT22;11117;48.644;9.006;2024-02-23T14:33:40;10.60;99.90
21906;DHT22;11117;48.644;9.006;2024-02-23T14:36:06;10.30;99.90
21906;DHT22;11117;48.644;9.006;2024-02-23T14:38:32;10.00;99.90
21906;DHT22;11117;48.644;9.006;2024-02-23T14:40:57;9.80;99.90
21906;DHT22;11117;48.644;9.006;2024-02-23T14:43:23;9.70;99.90
21906;DHT22;11117;48.644;9.006;2024-02-23T14:45:48;9.90;99.90
21906;DHT22;11117;48.644;9.006;2024-02-23T14:48:14;9.80;99.90
21906;DHT22;11117;48.644;9.006;2024-02-23T14:50:39;9.50;99.90
21906;DHT22;11117;48.644;9.006;2024-02-23T14:53:05;9.30;99.90
21906;DHT22;11117;48.644;9.006;2024-02-23T14:55:30;9.10;99.90
21906;DHT22;11117;48.644;9.006;2024-02-23T14:57:56;8.80;99.90
21906;DHT22;11117;48.644;9.006;2024-02-23T15:00:22;8.80;99.90
21906;DHT22;11117;48.644;9.006;2024-02-23T15:02:53;8.90;99.90
21906;DHT22;11117;48.644;9.006;2024-02-23T15:05:18;8.80;99.90
21906;DHT22;11117;48.644;9.006;2024-02-23T15:07:44;8.60;99.90
21906;DHT22;11117;48.644;9.006;2024-02-23T15:10:09;8.60;99.90
21906;DHT22;11117;48.644;9.006;2024-02-23T15:12:35;8.50;99.90
21906;DHT22;11117;48.644;9.006;2024-02-23T15:15:01;8.60;99.90
21906;DHT22;11117;48.644;9.006;2024-02-23T15:17:26;8.90;99.90
21906;DHT22;11117;48.644;9.006;2024-02-23T15:19:52;8.90;99.90
21906;DHT22;11117;48.644;9.006;2024-02-23T15:22:18;9.10;99.90
21906;DHT22;11117;48.644;9.006;2024-02-23T15:24:44;8.90;99.90
21906;DHT22;11117;48.644;9.006;2024-02-23T15:27:09;8.70;99.90
21906;DHT22;11117;48.644;9.006;2024-02-23T15:29:35;8.80;99.90
21906;DHT22;11117;48.644;9.006;2024-02-23T15:32:01;9.00;99.90
21906;DHT22;11117;48.644;9.006;2024-02-23T15:34:26;9.00;99.90
21906;DHT22;11117;48.644;9.006;2024-02-23T15:36:52;9.30;99.90
21906;DHT22;11117;48.644;9.006;2024-02-23T15:39:17;9.30;99.90